createdAt,value
2019-01-13T05:57:53.877Z,34.93
2019-01-13T06:00:33.572Z,27.10
2019-01-13T06:03:05.969Z,40.83
2019-01-13T06:05:39.050Z,41.33
2019-01-13T06:08:11.199Z,25.60
2019-01-13T06:10:43.387Z,16.10
2019-01-13T06:13:22.160Z,22.83
2019-01-13T06:15:56.016Z,18.37
2019-01-13T06:18:29.318Z,12.73
2019-01-13T06:21:03.087Z,15.73
2019-01-13T06:23:38.920Z,9.30
2019-01-13T06:26:13.724Z,8.93
2019-01-13T06:28:47.937Z,9.63
2019-01-13T06:31:19.652Z,10.23
2019-01-13T06:33:53.584Z,6.57
2019-01-13T06:36:26.381Z,5.97
2019-01-13T09:55:20.967Z,4.03
2019-01-13T09:57:54.278Z,0.13
2019-01-13T10:00:36.121Z,2.17
2019-01-13T10:03:09.402Z,0.00
2019-01-13T10:05:47.660Z,0.20
2019-01-13T10:08:22.522Z,0.07
2019-01-13T10:10:54.313Z,0.20
2019-01-13T10:13:35.925Z,0.00
2019-01-13T10:16:13.550Z,0.00
2019-01-13T10:18:47.542Z,0.20
2019-01-13T10:21:20.379Z,0.10
2019-01-13T10:23:53.349Z,0.00
2019-01-13T10:26:29.547Z,0.10
2019-01-13T10:29:03.793Z,0.00
2019-01-13T10:31:37.714Z,0.10
2019-01-13T10:34:18.575Z,0.00
2019-01-13T10:36:55.477Z,0.00
2019-01-13T10:39:28.501Z,0.30
2019-01-13T10:44:42.760Z,0.43
2019-01-13T10:47:19.998Z,0.00
2019-01-13T10:49:52.495Z,0.10
2019-01-13T10:52:24.827Z,0.13
2019-01-13T10:54:55.927Z,0.30
2019-01-13T10:57:29.310Z,0.60
2019-01-13T11:00:00.880Z,0.83
2019-01-13T11:02:37.034Z,2.73
2019-01-13T11:05:09.557Z,5.07
2019-01-13T11:07:42.329Z,0.87
2019-01-13T11:41:41.636Z,3.70
2019-01-13T11:44:13.811Z,0.00
2019-01-13T11:46:47.384Z,3.57
2019-01-13T11:49:23.665Z,0.00
2019-01-13T11:54:57.450Z,1.80
2019-01-13T11:57:29.705Z,0.10
2019-01-13T12:00:02.530Z,1.27
2019-01-13T12:02:34.234Z,0.00
2019-01-13T12:05:09.391Z,0.28
2019-01-13T12:07:41.754Z,0.07
2019-01-13T12:10:16.323Z,0.10
2019-01-13T12:12:47.320Z,0.00
2019-01-13T12:15:19.601Z,2.33
2019-01-13T12:17:50.992Z,0.00
2019-01-13T12:20:24.688Z,0.83
2019-01-13T12:22:56.467Z,0.47
2019-01-13T12:25:28.956Z,0.10
2019-01-13T12:28:02.229Z,0.00
2019-01-13T12:30:36.065Z,0.00
2019-01-13T12:33:09.739Z,0.10
2019-01-13T12:35:42.431Z,0.00
2019-01-13T12:38:15.445Z,0.10
2019-01-13T12:40:47.103Z,0.00
2019-01-13T12:43:19.602Z,0.10
2019-01-13T12:45:53.009Z,0.10
2019-01-13T12:48:24.791Z,0.70
2019-01-13T12:50:55.958Z,0.00
2019-01-13T12:53:30.102Z,0.00
2019-01-13T12:56:03.207Z,0.13
2019-01-13T12:58:35.948Z,0.00
2019-01-13T13:01:07.127Z,0.00
2019-01-13T13:03:40.093Z,0.10
2019-01-13T13:06:11.776Z,0.47
2019-01-13T13:08:42.913Z,0.00
2019-01-13T13:11:15.808Z,0.67
2019-01-13T13:13:48.363Z,0.00
2019-01-13T13:16:23.390Z,0.00
2019-01-13T13:18:57.204Z,0.00
2019-01-13T13:21:30.043Z,0.10
2019-01-13T13:24:02.129Z,0.10
2019-01-13T13:26:36.065Z,0.20
2019-01-13T13:29:11.848Z,0.97
2019-01-13T13:31:44.738Z,0.20
2019-01-13T13:34:19.304Z,0.27
2019-01-13T13:36:51.728Z,0.20
2019-01-13T13:39:25.207Z,1.63
2019-01-13T13:42:00.797Z,2.12
2019-01-13T13:44:36.764Z,0.60
2019-01-13T13:47:12.498Z,0.43
2019-01-13T13:49:42.782Z,5.63
2019-01-13T13:52:15.135Z,0.50
2019-01-13T13:54:45.879Z,2.00
2019-01-13T19:06:24.943Z,0.10
2019-01-13T19:08:57.919Z,0.20
2019-01-13T22:11:48.063Z,7.50
2019-01-13T22:14:20.289Z,4.50
2019-01-13T22:16:53.503Z,7.30
2019-01-13T22:19:25.705Z,4.80
2019-01-13T22:21:57.075Z,5.37
2019-01-13T22:24:30.041Z,4.53
2019-01-13T22:27:02.305Z,3.33
2019-01-13T22:29:33.269Z,3.17
2019-01-13T22:32:08.497Z,5.17
2019-01-13T22:34:43.267Z,6.28
2019-01-13T22:37:14.461Z,5.57
2019-01-13T22:39:47.297Z,5.03
2019-01-13T22:42:18.108Z,6.43
2019-01-13T22:44:48.570Z,11.20
2019-01-13T22:47:19.258Z,4.70
2019-01-13T22:49:52.201Z,5.37
2019-01-13T22:52:23.817Z,4.23
2019-01-13T22:54:55.729Z,8.95
2019-01-13T22:57:29.314Z,4.23
2019-01-13T23:00:00.434Z,5.40
2019-01-13T23:02:33.545Z,2.93
2019-01-13T23:05:05.569Z,3.20
2019-01-13T23:07:39.820Z,3.80
2019-01-13T23:10:11.691Z,5.40
2019-01-13T23:12:43.816Z,6.73
2019-01-13T23:15:16.140Z,7.87
2019-01-13T23:17:47.387Z,5.43
2019-01-13T23:20:19.437Z,5.10
2019-01-13T23:22:52.006Z,5.07
2019-01-13T23:25:23.346Z,5.00
2019-01-13T23:27:54.340Z,4.37
2019-01-13T23:30:26.357Z,4.50
2019-01-13T23:32:58.675Z,6.43
2019-01-13T23:35:29.795Z,5.17
2019-01-13T23:38:01.391Z,3.93
2019-01-13T23:40:32.052Z,6.43
2019-01-13T23:43:03.087Z,7.37
2019-01-13T23:45:34.002Z,11.67
2019-01-13T23:48:08.487Z,4.00
2019-01-13T23:50:40.868Z,1.75
2019-01-13T23:53:12.902Z,5.40
2019-01-13T23:55:46.474Z,1.47
2019-01-13T23:58:20.923Z,2.57
